Time;durP1;ratioP1;P1;durP2;ratioP2;P2;SDS_P1;SDS_P2;PMS_P1;PMS_P2;Temp;Humidity;BMP_temperature;BMP_pressure;BME280_temperature;BME280_humidity;BME280_pressure;Samples;Min_cycle;Max_cycle;Signal;HPM_P1;HPM_P2
2022/06/21 00:01:08;;;;;;;7.57;4.25;;;;;;;;;;5014110;28;95408;-72
2022/06/21 00:03:35;;;;;;;8.13;4.28;;;;;;;;;;5014293;28;97155;-71
2022/06/21 00:09:30;;;;;;;8.20;4.10;;;;;;;;;;5011570;28;95087;-73
2022/06/21 00:11:56;;;;;;;11.43;5.32;;;;;;;;;;5017188;28;96761;-72
2022/06/21 00:18:19;;;;;;;12.50;4.57;;;;;;;;;;5011261;28;95119;-72
2022/06/21 00:20:45;;;;;;;11.07;4.60;;;;;;;;;;5013828;28;97456;-72
2022/06/21 00:23:13;;;;;;;8.60;4.40;;;;;;;;;;5014152;28;95347;-71
2022/06/21 00:29:07;;;;;;;9.57;4.22;;;;;;;;;;5018329;27;95414;-72
2022/06/21 00:31:34;;;;;;;15.32;5.82;;;;;;;;;;5054149;27;95267;-72
2022/06/21 00:40:58;;;;;;;8.60;4.57;;;;;;;;;;5054635;27;95024;-71
2022/06/21 00:43:26;;;;;;;8.85;4.65;;;;;;;;;;5054000;27;97314;-72
2022/06/21 00:49:24;;;;;;;9.05;4.30;;;;;;;;;;5051324;27;95529;-72
2022/06/21 00:51:53;;;;;;;9.48;4.18;;;;;;;;;;5053783;27;97178;-71
2022/06/21 00:58:15;;;;;;;12.05;4.53;;;;;;;;;;5051148;27;95103;-71
2022/06/21 01:00:41;;;;;;;8.70;4.20;;;;;;;;;;5053695;27;97207;-71
2022/06/21 01:03:13;;;;;;;13.57;4.50;;;;;;;;;;5057191;27;95328;-71
2022/06/21 01:09:09;;;;;;;8.25;4.32;;;;;;;;;;5051020;27;95055;-71
2022/06/21 01:11:40;;;;;;;9.45;3.92;;;;;;;;;;5053365;27;96798;-72
2022/06/21 01:18:12;;;;;;;11.63;4.40;;;;;;;;;;5053935;27;95051;-72
2022/06/21 01:20:40;;;;;;;12.73;4.30;;;;;;;;;;5056826;27;95919;-72
2022/06/21 01:23:26;;;;;;;9.18;4.20;;;;;;;;;;5056224;27;97413;-73
2022/06/21 01:29:19;;;;;;;8.02;4.00;;;;;;;;;;5048835;27;95852;-73
2022/06/21 01:31:46;;;;;;;9.55;4.30;;;;;;;;;;5038812;27;95289;-72
2022/06/21 01:38:12;;;;;;;9.10;4.25;;;;;;;;;;5053271;27;95502;-71
2022/06/21 01:40:43;;;;;;;7.88;4.25;;;;;;;;;;5056383;27;95231;-73
2022/06/21 01:43:13;;;;;;;7.35;4.55;;;;;;;;;;5056710;27;96889;-73
2022/06/21 01:49:08;;;;;;;9.35;4.13;;;;;;;;;;5053495;27;94896;-72
2022/06/21 01:51:37;;;;;;;6.15;3.72;;;;;;;;;;5041083;27;96791;-72
2022/06/21 01:58:09;;;;;;;9.57;4.20;;;;;;;;;;5053243;27;95077;-72
2022/06/21 02:00:38;;;;;;;8.85;3.80;;;;;;;;;;5055905;27;97308;-71
2022/06/21 02:03:07;;;;;;;7.70;3.53;;;;;;;;;;5056111;27;95346;-72
2022/06/21 02:09:04;;;;;;;8.90;3.70;;;;;;;;;;5052867;27;95369;-73
2022/06/21 02:11:36;;;;;;;5.97;3.05;;;;;;;;;;5056178;27;94869;-72
2022/06/21 02:20:59;;;;;;;9.70;4.07;;;;;;;;;;5055953;27;94981;-72
2022/06/21 02:23:25;;;;;;;7.13;3.50;;;;;;;;;;5055646;27;97519;-73
2022/06/21 02:29:20;;;;;;;6.68;3.40;;;;;;;;;;5052467;27;95051;-72
2022/06/21 02:31:47;;;;;;;6.28;3.70;;;;;;;;;;5037397;27;97097;-71
2022/06/21 02:40:52;;;;;;;8.15;3.50;;;;;;;;;;5055508;27;97068;-71
2022/06/21 02:43:26;;;;;;;7.15;3.58;;;;;;;;;;5058734;27;95432;-71
2022/06/21 20:43:12;;;;;;;7.03;2.10;;;;;;;;;;5025829;27;96671;-75
2022/06/21 20:45:18;;;;;;;7.65;2.47;;;;;;;;;;5027144;28;96323;-75
2022/06/21 20:47:57;;;;;;;6.43;2.30;;;;;;;;;;5027816;27;96078;-74
2022/06/21 20:50:23;;;;;;;4.15;2.25;;;;;;;;;;5023041;27;95120;-74
2022/06/21 20:53:08;;;;;;;6.47;2.35;;;;;;;;;;5008678;28;97346;-74
2022/06/21 20:55:52;;;;;;;8.50;2.97;;;;;;;;;;5018360;27;95503;-74
2022/06/21 20:58:18;;;;;;;5.63;2.30;;;;;;;;;;5028458;28;96678;-74
2022/06/21 21:00:44;;;;;;;5.07;2.35;;;;;;;;;;5028278;28;97306;-72
2022/06/21 21:03:13;;;;;;;11.23;2.80;;;;;;;;;;5032527;28;95405;-74
2022/06/21 21:05:43;;;;;;;4.07;2.50;;;;;;;;;;5027673;28;96331;-73
2022/06/21 21:08:12;;;;;;;5.60;2.50;;;;;;;;;;5029244;28;95246;-73
2022/06/21 21:10:49;;;;;;;4.45;2.50;;;;;;;;;;5026992;28;97043;-74
2022/06/21 21:13:19;;;;;;;8.25;2.97;;;;;;;;;;5028630;28;97569;-72
2022/06/21 21:15:54;;;;;;;5.32;2.50;;;;;;;;;;5028699;27;95470;-75
2022/06/21 21:18:29;;;;;;;8.38;2.70;;;;;;;;;;5027195;28;96048;-73
2022/06/21 21:20:57;;;;;;;6.70;3.13;;;;;;;;;;5028343;28;98284;-73
2022/06/21 21:23:25;;;;;;;6.22;3.00;;;;;;;;;;5027011;28;95425;-73
2022/06/21 21:25:54;;;;;;;5.25;3.05;;;;;;;;;;5031364;28;96928;-72
2022/06/21 21:28:24;;;;;;;6.78;3.00;;;;;;;;;;5029241;27;95217;-75
2022/06/21 21:31:01;;;;;;;7.13;3.30;;;;;;;;;;5029146;27;95736;-73
2022/06/21 21:33:51;;;;;;;6.68;3.20;;;;;;;;;;5026705;28;96671;-73
2022/06/21 21:36:29;;;;;;;8.18;3.20;;;;;;;;;;5016351;28;95386;-74
2022/06/21 21:39:14;;;;;;;7.63;4.20;;;;;;;;;;5028318;28;96671;-73
2022/06/21 21:41:49;;;;;;;7.88;3.60;;;;;;;;;;5027679;28;97205;-74
2022/06/21 21:44:18;;;;;;;10.60;3.80;;;;;;;;;;5027654;28;95315;-73
2022/06/21 21:46:48;;;;;;;9.50;4.10;;;;;;;;;;5028082;28;96793;-75
2022/06/21 21:49:14;;;;;;;13.98;4.15;;;;;;;;;;5031379;28;97670;-75
2022/06/21 21:51:45;;;;;;;7.70;4.35;;;;;;;;;;5026543;28;96821;-75
2022/06/21 21:54:11;;;;;;;7.53;4.40;;;;;;;;;;5012861;28;96264;-75
2022/06/21 21:56:39;;;;;;;14.27;4.90;;;;;;;;;;5014818;28;95355;-74
2022/06/21 21:59:09;;;;;;;10.07;4.70;;;;;;;;;;5015315;28;96760;-75
2022/06/21 22:01:37;;;;;;;8.23;4.90;;;;;;;;;;5014276;28;97273;-74
2022/06/21 22:04:22;;;;;;;10.77;4.78;;;;;;;;;;5015298;28;95353;-75
2022/06/21 22:06:56;;;;;;;12.48;4.78;;;;;;;;;;5015225;28;97175;-75
2022/06/21 22:09:35;;;;;;;13.85;5.20;;;;;;;;;;5013946;28;97193;-74
2022/06/21 22:12:05;;;;;;;11.48;5.60;;;;;;;;;;5018024;28;95805;-74
2022/06/21 22:14:31;;;;;;;13.88;5.38;;;;;;;;;;5012356;28;96542;-74
2022/06/21 22:17:00;;;;;;;11.40;5.75;;;;;;;;;;5014004;28;95503;-74
2022/06/21 22:19:50;;;;;;;8.75;5.80;;;;;;;;;;5014599;28;96466;-74
2022/06/21 22:22:26;;;;;;;13.32;5.80;;;;;;;;;;4974059;28;97393;-74
2022/06/21 22:24:53;;;;;;;14.57;5.97;;;;;;;;;;4994393;28;95144;-74
2022/06/21 22:27:33;;;;;;;9.18;5.70;;;;;;;;;;5014102;28;96809;-74
2022/06/21 22:30:07;;;;;;;9.70;6.03;;;;;;;;;;5013508;28;96323;-75
2022/06/21 22:32:33;;;;;;;11.45;5.88;;;;;;;;;;5014364;28;95380;-75
2022/06/21 22:35:00;;;;;;;13.88;6.38;;;;;;;;;;5016249;28;95922;-73
2022/06/21 22:37:31;;;;;;;12.90;6.68;;;;;;;;;;5013537;28;95286;-74
2022/06/21 22:40:10;;;;;;;10.32;5.88;;;;;;;;;;5014653;28;96766;-75
2022/06/21 22:42:37;;;;;;;9.98;6.25;;;;;;;;;;5009873;28;97388;-74
2022/06/21 22:45:07;;;;;;;10.38;5.43;;;;;;;;;;5014003;28;95364;-74
2022/06/21 22:47:35;;;;;;;11.80;6.40;;;;;;;;;;5014366;28;96753;-74
2022/06/21 22:50:04;;;;;;;10.75;6.07;;;;;;;;;;5014344;28;97408;-74
2022/06/21 22:52:36;;;;;;;15.40;6.47;;;;;;;;;;5013853;28;95401;-74
2022/06/21 22:55:05;;;;;;;11.95;6.05;;;;;;;;;;5014192;28;96786;-74
2022/06/21 22:57:33;;;;;;;12.20;5.95;;;;;;;;;;5016239;28;95388;-75
2022/06/21 23:00:05;;;;;;;16.15;6.50;;;;;;;;;;5014244;28;96007;-74
2022/06/21 23:02:31;;;;;;;16.45;6.85;;;;;;;;;;5013785;28;97253;-73
2022/06/21 23:05:03;;;;;;;17.00;6.38;;;;;;;;;;5012411;28;95381;-74
2022/06/21 23:07:32;;;;;;;10.00;6.53;;;;;;;;;;5014489;28;97440;-74
2022/06/21 23:09:59;;;;;;;9.63;5.88;;;;;;;;;;5013828;28;97268;-74
2022/06/21 23:12:25;;;;;;;14.02;7.13;;;;;;;;;;5011159;28;95454;-74
2022/06/21 23:14:52;;;;;;;16.90;6.78;;;;;;;;;;5012959;28;96975;-74
2022/06/21 23:17:19;;;;;;;11.15;6.45;;;;;;;;;;5016700;28;97591;-74
2022/06/21 23:19:46;;;;;;;10.10;6.65;;;;;;;;;;5013432;28;96788;-74
2022/06/21 23:22:13;;;;;;;15.30;7.07;;;;;;;;;;5013178;28;97627;-74
2022/06/21 23:24:47;;;;;;;11.20;6.60;;;;;;;;;;5013480;28;95420;-75
2022/06/21 23:27:22;;;;;;;12.13;6.55;;;;;;;;;;5013690;28;96772;-75
2022/06/21 23:29:52;;;;;;;11.82;6.82;;;;;;;;;;5013546;28;97166;-75
2022/06/21 23:32:21;;;;;;;9.48;6.60;;;;;;;;;;5011091;28;96492;-74
2022/06/21 23:34:55;;;;;;;11.82;6.63;;;;;;;;;;5013681;28;96698;-74
2022/06/21 23:37:23;;;;;;;8.52;5.68;;;;;;;;;;5013151;28;97300;-74
2022/06/21 23:39:50;;;;;;;12.25;6.18;;;;;;;;;;5016284;28;95420;-74
2022/06/21 23:42:18;;;;;;;14.50;7.28;;;;;;;;;;5012908;28;97491;-72
2022/06/21 23:44:46;;;;;;;16.58;7.32;;;;;;;;;;5012430;28;95441;-72
2022/06/21 23:47:14;;;;;;;14.98;7.07;;;;;;;;;;5013032;28;96743;-73
2022/06/21 23:49:41;;;;;;;17.27;7.57;;;;;;;;;;5013525;28;98976;-75
2022/06/21 23:52:10;;;;;;;18.90;7.68;;;;;;;;;;5014061;28;95345;-74
2022/06/21 23:54:36;;;;;;;12.50;7.25;;;;;;;;;;5012667;28;96804;-74
2022/06/21 23:57:03;;;;;;;15.30;7.15;;;;;;;;;;5011846;28;97751;-75
2022/06/21 23:59:31;;;;;;;11.52;6.55;;;;;;;;;;5012915;28;95357;-74
